Time;durP1;ratioP1;P1;durP2;ratioP2;P2;SDS_P1;SDS_P2;PMS_P1;PMS_P2;Temp;Humidity;BMP_temperature;BMP_pressure;BME280_temperature;BME280_humidity;BME280_pressure;Samples;Min_cycle;Max_cycle;Signal;HPM_P1;HPM_P2
2023/11/22 00:02:20;;;;;;;9.20;5.93;;;;;;;0.62;97.69;101829.06;5026185;28;20215;-73
2023/11/22 00:04:46;;;;;;;10.23;6.50;;;;;;;0.59;96.32;101837.31;5028723;28;20212;-73
2023/11/22 00:07:13;;;;;;;10.83;6.27;;;;;;;0.57;95.55;101830.78;5023573;28;20211;-73
2023/11/22 00:09:39;;;;;;;10.20;6.17;;;;;;;0.57;95.77;101823.75;5024654;28;20203;-73
2023/11/22 00:12:08;;;;;;;11.73;6.30;;;;;;;0.57;96.68;101821.16;5021203;28;20201;-72
2023/11/22 00:14:34;;;;;;;9.93;6.17;;;;;;;0.57;97.08;101822.97;5028410;28;20695;-72
2023/11/22 00:17:02;;;;;;;10.67;6.50;;;;;;;0.53;95.78;101825.22;5029215;28;20214;-72
2023/11/22 00:19:30;;;;;;;12.90;6.30;;;;;;;0.54;96.24;101824.22;5022200;28;20362;-72
2023/11/22 00:21:56;;;;;;;11.77;6.07;;;;;;;0.54;96.55;101832.03;5030966;28;20207;-72
2023/11/22 00:24:23;;;;;;;10.23;6.20;;;;;;;0.53;96.20;101832.25;5029130;28;20215;-72
2023/11/22 00:26:49;;;;;;;10.90;6.13;;;;;;;0.52;96.96;101823.66;5025959;28;20223;-72
2023/11/22 00:29:15;;;;;;;10.43;6.33;;;;;;;0.53;95.70;101827.06;5026751;28;20206;-73
2023/11/22 00:31:42;;;;;;;11.43;6.17;;;;;;;0.52;94.67;101828.06;5029835;28;20196;-73
2023/11/22 00:34:13;;;;;;;10.47;6.50;;;;;;;0.50;94.89;101828.28;5039834;28;20219;-74
2023/11/22 00:36:40;;;;;;;10.23;6.10;;;;;;;0.50;94.73;101828.28;5044243;28;20754;-74
2023/11/22 00:39:05;;;;;;;9.27;5.57;;;;;;;0.49;93.88;101824.13;5029973;28;20242;-75
2023/11/22 00:41:32;;;;;;;7.57;5.03;;;;;;;0.52;94.12;101841.06;5039390;28;20680;-74
2023/11/22 00:43:58;;;;;;;10.83;6.13;;;;;;;0.53;96.89;101840.81;5039750;28;20227;-75
2023/11/22 00:46:25;;;;;;;9.57;6.13;;;;;;;0.53;95.82;101840.03;5029573;28;20223;-74
2023/11/22 00:48:51;;;;;;;9.30;5.77;;;;;;;0.54;96.59;101849.41;5040814;28;20215;-74
2023/11/22 00:51:19;;;;;;;9.33;5.70;;;;;;;0.51;94.48;101858.47;5027707;28;20208;-74
2023/11/22 00:53:45;;;;;;;10.40;6.03;;;;;;;0.52;95.26;101860.03;5024773;28;20250;-75
2023/11/22 00:56:12;;;;;;;10.20;5.57;;;;;;;0.54;94.79;101867.59;5028253;28;20220;-74
2023/11/22 00:58:38;;;;;;;9.97;5.90;;;;;;;0.50;95.36;101856.88;5028797;28;20219;-73
2023/11/22 01:01:05;;;;;;;8.33;5.37;;;;;;;0.53;96.43;101860.81;5038462;28;20588;-74
2023/11/22 01:03:31;;;;;;;8.83;5.20;;;;;;;0.51;95.40;101860.25;5025533;28;20297;-74
2023/11/22 01:05:57;;;;;;;9.13;5.50;;;;;;;0.49;94.56;101855.31;5043637;28;20228;-74
2023/11/22 01:08:25;;;;;;;9.67;6.17;;;;;;;0.47;95.11;101866.94;5024490;28;20430;-74
2023/11/22 01:10:51;;;;;;;11.73;5.93;;;;;;;0.45;95.55;101867.16;5027963;28;20661;-74
2023/11/22 01:13:18;;;;;;;8.70;5.57;;;;;;;0.44;95.42;101860.38;5037072;28;20581;-74
2023/11/22 01:15:45;;;;;;;9.50;5.93;;;;;;;0.44;94.93;101868.19;5043489;28;20381;-74
2023/11/22 01:18:11;;;;;;;9.63;5.07;;;;;;;0.41;95.70;101879.03;5042951;28;20204;-73
2023/11/22 01:20:38;;;;;;;10.23;5.77;;;;;;;0.36;93.42;101884.09;5023945;28;20201;-74
2023/11/22 01:23:04;;;;;;;8.90;5.43;;;;;;;0.37;93.24;101879.72;5025093;28;20839;-74
2023/11/22 01:25:32;;;;;;;13.70;6.30;;;;;;;0.36;95.66;101889.31;5029650;28;20242;-74
2023/11/22 01:27:59;;;;;;;9.43;5.80;;;;;;;0.35;96.72;101887.72;5024336;28;20581;-74
2023/11/22 01:30:25;;;;;;;8.97;5.60;;;;;;;0.33;95.90;101888.97;5027801;28;20583;-74
2023/11/22 01:32:52;;;;;;;11.03;5.17;;;;;;;0.33;96.72;101891.56;5039514;28;20208;-74
2023/11/22 01:35:19;;;;;;;9.30;5.13;;;;;;;0.30;94.31;101905.00;5041049;28;20220;-74
2023/11/22 01:37:46;;;;;;;10.53;6.53;;;;;;;0.26;94.83;101904.66;5016255;28;20581;-74
2023/11/22 01:40:14;;;;;;;9.07;5.50;;;;;;;0.25;95.54;101908.28;5041573;28;20208;-74
2023/11/22 01:42:42;;;;;;;9.83;5.50;;;;;;;0.23;95.13;101910.31;5038155;28;20203;-74
2023/11/22 01:45:09;;;;;;;8.33;5.53;;;;;;;0.21;93.46;101917.53;5028514;28;20224;-73
2023/11/22 01:47:37;;;;;;;8.90;5.70;;;;;;;0.18;93.01;101914.59;5024795;28;20302;-74
2023/11/22 01:50:05;;;;;;;10.23;5.57;;;;;;;0.18;93.34;101920.59;5029864;28;20212;-74
2023/11/22 01:52:32;;;;;;;9.53;5.57;;;;;;;0.18;92.58;101919.78;5040614;28;20200;-74
2023/11/22 01:54:58;;;;;;;8.83;5.20;;;;;;;0.16;94.24;101934.81;5025149;28;20216;-74
2023/11/22 01:57:25;;;;;;;10.70;5.50;;;;;;;0.11;93.13;101922.47;5019827;28;20576;-74
2023/11/22 01:59:53;;;;;;;12.23;5.40;;;;;;;0.09;92.70;101923.72;5025832;28;20212;-74
2023/11/22 02:02:20;;;;;;;9.73;5.13;;;;;;;0.09;94.95;101915.94;5016689;28;20201;-74
2023/11/22 02:04:46;;;;;;;9.17;5.47;;;;;;;0.07;96.42;101923.94;5027297;28;20658;-74
2023/11/22 02:07:13;;;;;;;7.70;4.83;;;;;;;0.04;95.73;101921.78;5021295;28;20207;-74
2023/11/22 02:09:39;;;;;;;11.60;5.30;;;;;;;0.01;93.40;101917.03;5026478;28;20204;-74
2023/11/22 02:12:08;;;;;;;9.07;5.37;;;;;;;-0.02;95.91;101912.31;5028662;28;20259;-74
2023/11/22 02:14:34;;;;;;;9.90;5.30;;;;;;;-0.06;93.75;101920.75;5032564;28;20206;-74
2023/11/22 02:17:02;;;;;;;9.20;5.03;;;;;;;-0.07;92.72;101932.16;5027586;28;20697;-74
2023/11/22 02:19:30;;;;;;;9.20;5.20;;;;;;;-0.09;95.57;101926.41;5028706;28;20223;-74
2023/11/22 02:21:56;;;;;;;11.27;6.20;;;;;;;-0.16;92.58;101938.66;5026251;28;20204;-74
2023/11/22 02:24:24;;;;;;;8.40;5.13;;;;;;;-0.17;92.97;101937.91;5023468;28;20291;-74
2023/11/22 02:26:51;;;;;;;8.93;5.07;;;;;;;-0.20;94.53;101933.13;5025424;28;20223;-74
2023/11/22 02:29:17;;;;;;;10.03;5.40;;;;;;;-0.21;94.46;101938.53;5026428;28;20676;-74
2023/11/22 02:31:44;;;;;;;9.90;5.00;;;;;;;-0.25;92.48;101943.38;5025832;28;20724;-74
2023/11/22 02:34:11;;;;;;;10.47;5.60;;;;;;;-0.26;93.41;101957.38;5026816;28;20203;-74
2023/11/22 02:36:37;;;;;;;8.47;5.23;;;;;;;-0.29;94.50;101952.63;5031297;28;20742;-73
2023/11/22 02:39:04;;;;;;;9.03;4.63;;;;;;;-0.32;93.57;101958.25;5027293;28;20214;-74
2023/11/22 02:41:32;;;;;;;9.80;5.87;;;;;;;-0.33;94.55;101975.88;5029842;28;20212;-73
2023/11/22 02:43:58;;;;;;;11.03;5.83;;;;;;;-0.36;94.25;101975.28;5026837;28;20212;-74
2023/11/22 02:46:26;;;;;;;10.07;5.73;;;;;;;-0.37;95.12;101970.31;5025098;28;20603;-74
2023/11/22 02:48:53;;;;;;;13.23;5.73;;;;;;;-0.43;94.03;101960.81;5036639;28;20191;-74
2023/11/22 02:51:21;;;;;;;9.47;5.30;;;;;;;-0.44;92.73;101959.22;5029055;28;20200;-74
2023/11/22 02:53:48;;;;;;;9.53;5.70;;;;;;;-0.47;93.31;101965.66;5027866;28;20196;-74
2023/11/22 02:56:15;;;;;;;8.40;5.07;;;;;;;-0.48;94.05;101970.28;5046742;28;20322;-73
2023/11/22 02:58:43;;;;;;;10.93;5.77;;;;;;;-0.53;93.96;101959.75;5031550;28;20215;-74
2023/11/22 03:01:09;;;;;;;8.90;5.13;;;;;;;-0.55;92.76;101965.16;5030961;28;20214;-74
2023/11/22 03:03:36;;;;;;;10.40;5.43;;;;;;;-0.56;94.63;101961.75;5021763;28;20192;-74
2023/11/22 03:06:02;;;;;;;10.23;5.93;;;;;;;-0.61;94.00;101961.63;5019149;28;20220;-73
2023/11/22 03:08:28;;;;;;;11.87;6.30;;;;;;;-0.65;92.88;101967.47;5031380;28;20197;-74
2023/11/22 03:10:55;;;;;;;12.83;6.07;;;;;;;-0.68;92.25;101967.13;5025643;28;20203;-74
2023/11/22 03:13:33;;;;;;;12.03;6.23;;;;;;;-0.72;93.16;101977.13;5027349;28;20335;-74
2023/11/22 03:16:03;;;;;;;9.60;5.40;;;;;;;-0.74;93.69;101996.53;5030801;28;20593;-74
2023/11/22 03:18:29;;;;;;;10.50;5.50;;;;;;;-0.77;93.78;102000.34;5022285;28;20220;-73
2023/11/22 03:20:57;;;;;;;11.73;5.30;;;;;;;-0.77;94.03;102015.09;5027196;28;20204;-74
2023/11/22 03:23:23;;;;;;;8.83;5.43;;;;;;;-0.83;93.79;102008.94;5040806;28;20206;-74
2023/11/22 03:25:49;;;;;;;9.80;5.70;;;;;;;-0.83;94.23;102011.53;5032603;28;20251;-74
2023/11/22 03:28:16;;;;;;;9.30;5.27;;;;;;;-0.87;94.69;102026.75;5038031;28;20207;-73
2023/11/22 03:30:42;;;;;;;8.97;5.90;;;;;;;-0.90;93.66;102026.38;5049245;28;20199;-74
2023/11/22 03:33:10;;;;;;;9.23;5.83;;;;;;;-0.94;94.20;102017.44;5027147;28;20673;-73
2023/11/22 03:35:36;;;;;;;9.20;5.23;;;;;;;-0.98;93.18;102030.06;5046082;28;20220;-74
2023/11/22 03:38:04;;;;;;;10.03;6.00;;;;;;;-0.98;94.05;102037.06;5025441;28;20200;-73
2023/11/22 03:40:30;;;;;;;10.80;5.50;;;;;;;-0.98;94.38;102036.25;5027834;28;20208;-73
2023/11/22 03:42:56;;;;;;;11.80;6.40;;;;;;;-1.04;93.25;102037.88;5022397;28;20200;-73
2023/11/22 03:45:23;;;;;;;14.47;6.40;;;;;;;-1.07;94.07;102046.88;5026913;28;20220;-73
2023/11/22 03:47:49;;;;;;;11.87;6.37;;;;;;;-1.09;93.82;102052.50;5033430;28;20195;-73
2023/11/22 03:50:18;;;;;;;9.50;5.73;;;;;;;-1.12;93.66;102061.50;5047392;28;21090;-73
2023/11/22 03:52:44;;;;;;;10.00;5.57;;;;;;;-1.17;93.36;102062.13;5045801;28;20215;-74
2023/11/22 03:55:10;;;;;;;10.57;6.80;;;;;;;-1.19;93.26;102072.91;5030991;28;20221;-73
2023/11/22 03:57:37;;;;;;;11.30;6.40;;;;;;;-1.23;93.10;102072.56;5032184;28;20568;-73
2023/11/22 04:00:06;;;;;;;11.00;5.97;;;;;;;-1.23;92.38;102071.75;5032347;28;20214;-73
2023/11/22 04:02:39;;;;;;;11.40;6.00;;;;;;;-1.27;92.97;102083.53;5029996;28;20641;-73
2023/11/22 04:05:07;;;;;;;9.77;6.40;;;;;;;-1.32;91.82;102084.19;5023789;28;20220;-73
2023/11/22 04:07:35;;;;;;;10.80;6.13;;;;;;;-1.34;92.03;102103.53;5043640;28;20613;-73
2023/11/22 04:10:01;;;;;;;7.93;5.30;;;;;;;-1.37;91.70;102112.50;5029059;28;20557;-73
2023/11/22 04:12:28;;;;;;;9.17;5.67;;;;;;;-1.40;92.74;102115.50;5023515;28;20204;-74
2023/11/22 04:14:54;;;;;;;12.17;5.67;;;;;;;-1.40;92.65;102123.28;5028639;28;20231;-73
2023/11/22 04:17:21;;;;;;;10.80;6.10;;;;;;;-1.44;92.81;102135.09;5027785;28;20201;-73
2023/11/22 04:19:47;;;;;;;10.70;5.37;;;;;;;-1.43;93.01;102141.03;5012053;28;20213;-73
2023/11/22 04:22:13;;;;;;;10.07;5.43;;;;;;;-1.48;93.27;102140.88;5029977;28;20200;-73
2023/11/22 04:24:42;;;;;;;11.93;6.90;;;;;;;-1.51;92.79;102134.31;5019917;28;20196;-73
2023/11/22 04:27:09;;;;;;;10.77;7.03;;;;;;;-1.55;93.11;102138.34;5022809;28;20216;-73
2023/11/22 04:29:35;;;;;;;12.63;7.43;;;;;;;-1.58;92.18;102143.13;5027955;28;20203;-74
2023/11/22 04:32:01;;;;;;;12.80;6.40;;;;;;;-1.61;92.74;102141.72;5034949;28;20200;-73
2023/11/22 04:34:28;;;;;;;9.97;6.13;;;;;;;-1.61;92.94;102133.19;5042404;28;20258;-73
2023/11/22 04:36:55;;;;;;;9.37;5.30;;;;;;;-1.67;93.05;102129.63;5029859;28;20228;-74
2023/11/22 04:39:21;;;;;;;8.73;5.63;;;;;;;-1.71;93.17;102143.19;5019891;28;20197;-73
2023/11/22 04:41:49;;;;;;;11.20;6.27;;;;;;;-1.71;92.74;102140.59;5027920;28;20199;-74
2023/11/22 04:44:15;;;;;;;10.30;6.00;;;;;;;-1.74;92.55;102143.59;5031275;28;20462;-74
2023/11/22 04:46:41;;;;;;;10.30;5.90;;;;;;;-1.78;92.78;102145.00;5032663;28;20238;-73
2023/11/22 04:49:08;;;;;;;9.80;5.70;;;;;;;-1.77;93.16;102138.84;5026603;28;20200;-74
2023/11/22 04:51:34;;;;;;;11.20;6.07;;;;;;;-1.81;92.98;102143.66;5025154;28;20474;-73
2023/11/22 04:54:01;;;;;;;7.73;5.10;;;;;;;-1.84;93.46;102153.59;5025159;28;20750;-74
2023/11/22 04:56:27;;;;;;;8.97;5.80;;;;;;;-1.85;93.02;102168.34;5043624;28;20235;-75
2023/11/22 04:58:55;;;;;;;12.87;5.90;;;;;;;-1.89;93.79;102177.53;5029565;28;20208;-74
2023/11/22 05:01:21;;;;;;;10.73;5.80;;;;;;;-1.90;93.67;102188.88;5022605;28;20196;-74
2023/11/22 05:03:47;;;;;;;11.77;5.87;;;;;;;-1.93;93.47;102191.84;5030665;28;20204;-74
2023/11/22 05:06:14;;;;;;;9.87;6.10;;;;;;;-1.97;93.66;102195.06;5024493;28;20220;-73
2023/11/22 05:08:41;;;;;;;11.63;6.17;;;;;;;-1.99;93.67;102191.88;5028816;28;20459;-75
2023/11/22 05:11:07;;;;;;;12.87;5.63;;;;;;;-2.00;94.18;102203.22;5045559;28;20780;-74
2023/11/22 05:13:34;;;;;;;11.67;6.13;;;;;;;-2.02;93.90;102205.25;5022770;28;20445;-74
2023/11/22 05:16:01;;;;;;;9.83;6.33;;;;;;;-2.08;93.55;102201.66;5030223;28;20474;-73
2023/11/22 05:18:28;;;;;;;10.90;6.20;;;;;;;-2.07;93.49;102205.06;5030672;28;20192;-74
2023/11/22 05:20:54;;;;;;;11.23;6.53;;;;;;;-2.11;94.00;102194.31;5014451;28;20483;-74
2023/11/22 05:23:21;;;;;;;11.60;6.67;;;;;;;-2.12;93.72;102186.75;5027318;28;20461;-74
2023/11/22 05:25:48;;;;;;;10.77;6.73;;;;;;;-2.14;93.75;102186.16;5029328;28;20846;-75
2023/11/22 05:28:15;;;;;;;11.67;7.00;;;;;;;-2.18;94.63;102193.50;5045634;28;20207;-74
2023/11/22 05:30:41;;;;;;;10.97;5.90;;;;;;;-2.21;94.49;102196.53;5026187;28;20463;-74
2023/11/22 05:33:09;;;;;;;10.17;6.17;;;;;;;-2.21;94.69;102191.34;5042717;28;20456;-74
2023/11/22 05:35:35;;;;;;;8.93;5.87;;;;;;;-2.22;95.46;102196.72;5017239;28;20477;-73
2023/11/22 05:38:02;;;;;;;11.97;5.87;;;;;;;-2.26;95.53;102185.19;5030593;28;20442;-74
2023/11/22 05:40:28;;;;;;;11.63;5.77;;;;;;;-2.28;95.23;102184.59;5027941;28;20539;-75
2023/11/22 05:42:54;;;;;;;10.37;5.30;;;;;;;-2.28;95.29;102174.25;5029993;28;20843;-75
2023/11/22 05:45:21;;;;;;;10.33;6.23;;;;;;;-2.32;95.36;102176.44;5027826;28;20804;-74
2023/11/22 05:47:47;;;;;;;9.67;5.87;;;;;;;-2.34;95.83;102198.34;5030220;28;20452;-74
2023/11/22 05:50:15;;;;;;;11.17;6.07;;;;;;;-2.36;95.44;102184.78;5029591;28;20488;-74
2023/11/22 05:52:41;;;;;;;12.57;6.50;;;;;;;-2.40;95.76;102179.22;5040721;28;20489;-73
2023/11/22 05:55:08;;;;;;;8.07;5.43;;;;;;;-2.42;95.10;102190.78;5042452;28;20475;-73
2023/11/22 05:57:35;;;;;;;10.07;6.13;;;;;;;-2.44;95.29;102198.72;5022518;28;20533;-73
2023/11/22 06:00:02;;;;;;;13.50;7.77;;;;;;;-2.43;96.13;102191.78;5036146;28;20456;-73
2023/11/22 06:02:30;;;;;;;11.80;6.53;;;;;;;-2.46;96.06;102185.22;5030274;28;20447;-73
2023/11/22 06:04:57;;;;;;;10.53;6.03;;;;;;;-2.50;95.72;102186.59;5023644;28;20548;-73
2023/11/22 06:07:24;;;;;;;10.87;6.40;;;;;;;-2.52;95.45;102211.06;5029900;28;20562;-73
2023/11/22 06:09:51;;;;;;;14.03;6.97;;;;;;;-2.54;95.84;102219.03;5025444;28;20464;-74
2023/11/22 06:12:19;;;;;;;10.97;6.37;;;;;;;-2.56;95.54;102233.94;5044888;28;20492;-72
2023/11/22 06:14:46;;;;;;;12.77;6.80;;;;;;;-2.56;95.92;102236.53;5028344;28;20782;-73
2023/11/22 06:17:12;;;;;;;12.90;7.33;;;;;;;-2.56;96.16;102240.91;5032201;28;20437;-73
2023/11/22 06:19:39;;;;;;;13.33;7.87;;;;;;;-2.60;96.19;102250.06;5029113;28;20484;-73
2023/11/22 06:22:06;;;;;;;15.10;7.97;;;;;;;-2.63;96.04;102263.38;5029656;28;20447;-73
2023/11/22 06:24:35;;;;;;;12.03;6.50;;;;;;;-2.64;95.88;102292.81;5029904;28;20958;-72
2023/11/22 06:27:02;;;;;;;15.03;6.83;;;;;;;-2.66;96.21;102302.53;5019179;28;20918;-73
2023/11/22 06:29:29;;;;;;;11.67;6.57;;;;;;;-2.70;96.21;102298.78;5015509;28;20529;-72
2023/11/22 06:31:55;;;;;;;13.87;5.90;;;;;;;-2.74;96.43;102284.66;5024810;28;20461;-73
2023/11/22 06:34:21;;;;;;;15.97;8.63;;;;;;;-2.77;96.38;102278.09;5044518;28;20808;-73
2023/11/22 06:36:48;;;;;;;13.27;7.70;;;;;;;-2.80;96.60;102277.69;5024062;28;20981;-72
2023/11/22 06:39:14;;;;;;;13.60;7.73;;;;;;;-2.82;97.08;102269.31;5022988;28;20777;-74
2023/11/22 06:41:42;;;;;;;14.23;7.00;;;;;;;-2.85;96.93;102282.66;5043789;28;20485;-74
2023/11/22 06:44:09;;;;;;;12.30;6.17;;;;;;;-2.90;97.15;102290.19;5036026;28;20452;-74
2023/11/22 06:46:36;;;;;;;12.13;7.07;;;;;;;-2.93;96.71;102287.97;5046898;28;20833;-75
2023/11/22 06:49:02;;;;;;;14.27;7.77;;;;;;;-2.96;96.55;102299.50;5040935;28;20466;-74
2023/11/22 06:51:28;;;;;;;15.43;8.47;;;;;;;-2.98;97.11;102298.09;5043852;28;20544;-74
2023/11/22 06:53:55;;;;;;;16.23;8.57;;;;;;;-2.97;97.28;102303.09;5046666;28;20458;-74
2023/11/22 06:56:21;;;;;;;13.60;7.37;;;;;;;-3.01;96.97;102296.72;5035988;28;20471;-74
2023/11/22 06:58:49;;;;;;;14.33;7.30;;;;;;;-3.03;97.50;102298.69;5020842;28;20455;-74
2023/11/22 07:01:15;;;;;;;13.13;7.40;;;;;;;-3.01;98.24;102303.69;5025095;28;20840;-74
2023/11/22 07:03:42;;;;;;;11.10;6.43;;;;;;;-3.01;98.91;102293.34;5030166;28;20449;-74
2023/11/22 07:06:09;;;;;;;10.77;6.60;;;;;;;-3.02;99.18;102284.78;5028124;28;20540;-75
2023/11/22 07:08:36;;;;;;;16.23;7.10;;;;;;;-2.99;99.43;102281.81;5023645;28;20690;-74
2023/11/22 07:11:03;;;;;;;9.83;6.43;;;;;;;-2.97;100.00;102277.25;5035974;28;20463;-73
2023/11/22 07:13:29;;;;;;;15.23;6.93;;;;;;;-2.98;100.00;102273.06;5022173;28;20445;-74
2023/11/22 07:15:57;;;;;;;12.27;7.13;;;;;;;-2.96;100.00;102280.63;5030275;28;20488;-74
2023/11/22 07:18:24;;;;;;;13.70;7.73;;;;;;;-2.96;100.00;102284.00;5023964;28;20442;-76
2023/11/22 07:20:53;;;;;;;11.70;6.90;;;;;;;-3.00;100.00;102287.19;5043770;28;20993;-76
2023/11/22 07:23:19;;;;;;;14.40;7.33;;;;;;;-2.97;100.00;102294.53;5043286;28;20847;-74
2023/11/22 07:25:46;;;;;;;14.40;8.37;;;;;;;-2.97;100.00;102304.88;5031349;28;20839;-74
2023/11/22 07:28:12;;;;;;;19.03;7.80;;;;;;;-2.95;100.00;102297.72;5029933;28;20849;-75
2023/11/22 07:30:41;;;;;;;10.87;6.40;;;;;;;-2.94;99.88;102307.06;5034961;28;20458;-75
2023/11/22 07:33:09;;;;;;;12.80;7.53;;;;;;;-2.91;99.63;102311.84;5034794;28;20999;-75
2023/11/22 07:35:35;;;;;;;13.47;7.40;;;;;;;-2.87;99.80;102328.53;5016893;28;20469;-74
2023/11/22 07:38:03;;;;;;;14.23;7.00;;;;;;;-2.84;99.72;102330.75;5032763;28;20501;-75
2023/11/22 07:40:30;;;;;;;16.87;8.83;;;;;;;-2.77;100.00;102336.72;5046454;28;20467;-74
2023/11/22 07:42:56;;;;;;;14.43;7.97;;;;;;;-2.78;100.00;102343.69;5033362;28;20790;-76
2023/11/22 07:45:23;;;;;;;15.90;7.53;;;;;;;-2.75;100.00;102345.09;5035646;28;20826;-75
2023/11/22 07:47:50;;;;;;;15.87;8.07;;;;;;;-2.74;99.42;102336.34;5026271;28;20943;-75
2023/11/22 07:50:19;;;;;;;38.97;16.17;;;;;;;-2.71;99.09;102348.91;5033755;28;20474;-75
2023/11/22 07:52:46;;;;;;;20.03;9.73;;;;;;;-2.67;99.13;102344.91;5034765;28;20537;-75
2023/11/22 07:55:12;;;;;;;13.73;7.40;;;;;;;-2.66;98.53;102352.47;5025652;28;20470;-75
2023/11/22 07:57:39;;;;;;;14.53;7.97;;;;;;;-2.62;98.21;102368.38;5035503;28;20996;-75
2023/11/22 08:00:07;;;;;;;16.47;9.13;;;;;;;-2.61;97.88;102370.78;5038427;28;20483;-75
2023/11/22 08:02:39;;;;;;;16.00;7.37;;;;;;;-2.57;97.88;102376.34;5024763;28;20440;-75
2023/11/22 08:05:08;;;;;;;16.73;8.40;;;;;;;-2.53;97.55;102390.50;5027880;28;20984;-75
2023/11/22 08:07:38;;;;;;;13.53;7.80;;;;;;;-2.50;97.65;102385.72;5030099;28;20438;-75
2023/11/22 08:10:09;;;;;;;13.30;7.50;;;;;;;-2.47;97.71;102393.09;5032819;28;20496;-75
2023/11/22 08:12:36;;;;;;;14.27;7.70;;;;;;;-2.42;97.65;102393.31;5027058;28;20469;-75
2023/11/22 08:15:03;;;;;;;16.53;7.73;;;;;;;-2.37;98.09;102390.94;5032640;28;20485;-75
2023/11/22 08:17:29;;;;;;;16.60;8.00;;;;;;;-2.32;97.63;102404.09;5031340;28;20913;-75
2023/11/22 08:19:56;;;;;;;15.73;8.90;;;;;;;-2.29;97.60;102405.47;5030128;28;20881;-75
2023/11/22 08:22:22;;;;;;;15.23;8.30;;;;;;;-2.27;96.24;102391.34;5030871;28;20242;-75
2023/11/22 08:24:50;;;;;;;16.10;8.13;;;;;;;-2.22;96.19;102388.16;5020099;28;20687;-75
2023/11/22 08:27:16;;;;;;;12.13;7.43;;;;;;;-2.19;95.70;102377.44;5029381;28;20963;-75
2023/11/22 08:29:46;;;;;;;17.53;8.67;;;;;;;-2.17;96.24;102376.25;5033284;28;20640;-74
2023/11/22 08:32:13;;;;;;;15.77;8.40;;;;;;;-2.11;96.31;102377.22;5021340;28;20448;-75
2023/11/22 08:34:39;;;;;;;14.27;7.43;;;;;;;-2.09;96.31;102388.16;5033069;28;20541;-75
2023/11/22 08:37:06;;;;;;;16.93;8.70;;;;;;;-2.05;95.29;102379.81;5021425;28;20291;-75
2023/11/22 08:39:32;;;;;;;18.33;9.30;;;;;;;-2.02;95.45;102383.81;5041697;28;20246;-75
2023/11/22 08:42:00;;;;;;;13.60;7.47;;;;;;;-1.98;96.10;102379.84;5026219;28;20465;-75
2023/11/22 08:44:26;;;;;;;13.33;8.13;;;;;;;-1.95;95.89;102384.59;5048103;28;20467;-75
2023/11/22 08:46:52;;;;;;;14.03;7.80;;;;;;;-1.93;96.46;102386.00;5031096;28;20215;-75
2023/11/22 08:49:19;;;;;;;16.17;7.93;;;;;;;-1.89;95.49;102387.19;5024592;28;20206;-75
2023/11/22 08:51:46;;;;;;;16.87;8.73;;;;;;;-1.85;94.78;102398.75;5024146;28;20206;-75
2023/11/22 08:54:12;;;;;;;14.50;7.93;;;;;;;-1.81;95.64;102402.53;5029008;28;20505;-75
2023/11/22 08:56:39;;;;;;;14.83;7.47;;;;;;;-1.77;94.07;102401.13;5034514;28;20481;-73
2023/11/22 08:59:07;;;;;;;14.67;7.90;;;;;;;-1.74;94.60;102413.69;5028935;28;20215;-75
2023/11/22 09:01:33;;;;;;;15.97;7.47;;;;;;;-1.68;93.66;102407.69;5031448;28;20201;-75
2023/11/22 09:04:00;;;;;;;15.57;8.13;;;;;;;-1.64;94.08;102408.91;5039916;28;20208;-75
2023/11/22 09:06:28;;;;;;;15.57;7.90;;;;;;;-1.58;94.10;102407.28;5030026;28;20212;-75
2023/11/22 09:08:56;;;;;;;17.00;7.93;;;;;;;-1.54;94.37;102414.47;5029523;28;20207;-75
2023/11/22 09:11:23;;;;;;;15.43;8.77;;;;;;;-1.50;94.89;102417.44;5042717;28;20538;-75
2023/11/22 09:13:50;;;;;;;13.70;8.47;;;;;;;-1.47;95.38;102423.00;5019987;28;20196;-75
2023/11/22 09:16:19;;;;;;;15.20;7.33;;;;;;;-1.45;94.75;102425.41;5036912;28;20208;-75
2023/11/22 09:18:45;;;;;;;14.17;7.80;;;;;;;-1.40;93.45;102423.00;5020853;28;20211;-75
2023/11/22 09:21:12;;;;;;;11.80;7.00;;;;;;;-1.37;94.06;102413.03;5035984;28;20230;-73
2023/11/22 09:23:38;;;;;;;14.23;7.77;;;;;;;-1.35;94.63;102403.25;5047555;28;20200;-74
2023/11/22 09:26:05;;;;;;;11.13;7.13;;;;;;;-1.34;92.93;102396.28;5034457;28;20219;-75
2023/11/22 09:28:31;;;;;;;11.10;6.90;;;;;;;-1.32;92.23;102392.50;5034501;28;20534;-75
2023/11/22 09:31:05;;;;;;;13.07;7.23;;;;;;;-1.27;93.09;102381.50;5041593;28;20200;-74
2023/11/22 09:33:33;;;;;;;16.77;8.23;;;;;;;-1.24;94.04;102376.75;5035934;28;20275;-74
2023/11/22 09:35:59;;;;;;;14.83;7.93;;;;;;;-1.22;94.07;102377.31;5041973;28;20226;-74
2023/11/22 09:38:26;;;;;;;12.63;7.43;;;;;;;-1.20;93.48;102370.13;5038844;28;20208;-74
2023/11/22 09:40:52;;;;;;;12.43;7.17;;;;;;;-1.17;92.80;102373.09;5042424;28;20259;-75
2023/11/22 09:43:20;;;;;;;14.30;7.27;;;;;;;-1.13;92.34;102375.31;5035318;28;20203;-74
2023/11/22 09:45:48;;;;;;;13.13;6.83;;;;;;;-1.13;91.13;102391.66;5024955;28;20226;-75
2023/11/22 09:48:16;;;;;;;12.37;6.97;;;;;;;-1.10;90.19;102393.81;5019268;28;20204;-75
2023/11/22 09:50:51;;;;;;;14.57;6.77;;;;;;;-1.05;91.49;102393.22;5021878;28;20188;-75
2023/11/22 09:53:26;;;;;;;11.93;7.17;;;;;;;-1.04;93.31;102387.03;5028478;28;20840;-74
2023/11/22 09:55:53;;;;;;;16.80;8.37;;;;;;;-1.02;91.87;102396.97;5028283;28;20254;-74
2023/11/22 09:58:20;;;;;;;11.67;6.57;;;;;;;-0.98;92.77;102390.41;5026265;28;20700;-73
2023/11/22 10:00:48;;;;;;;16.67;7.97;;;;;;;-0.96;92.80;102392.78;5031283;28;20231;-75
2023/11/22 10:03:16;;;;;;;14.10;7.83;;;;;;;-0.96;91.28;102397.97;5025530;28;20203;-74
2023/11/22 10:05:44;;;;;;;12.90;7.57;;;;;;;-0.94;90.84;102395.19;5029725;28;20644;-74
2023/11/22 10:08:10;;;;;;;14.63;7.83;;;;;;;-0.92;92.12;102402.53;5030975;28;20188;-74
2023/11/22 10:10:38;;;;;;;14.50;6.23;;;;;;;-0.91;91.75;102400.75;5027679;28;20271;-74
2023/11/22 10:13:05;;;;;;;10.90;6.57;;;;;;;-0.90;91.28;102394.56;5025091;28;20764;-75
2023/11/22 10:15:31;;;;;;;13.57;7.27;;;;;;;-0.90;89.23;102375.63;5025318;28;20748;-75
2023/11/22 10:18:00;;;;;;;13.37;7.73;;;;;;;-0.87;89.73;102381.19;5031239;28;20218;-75
2023/11/22 10:20:37;;;;;;;17.57;7.43;;;;;;;-0.85;88.55;102376.59;5026864;28;20193;-75
2023/11/22 10:23:08;;;;;;;9.53;5.63;;;;;;;-0.83;88.61;102361.59;5029768;28;20199;-75
2023/11/22 10:25:35;;;;;;;10.57;6.30;;;;;;;-0.79;89.24;102382.75;5030490;28;20247;-74
2023/11/22 10:28:02;;;;;;;14.53;7.77;;;;;;;-0.79;89.68;102370.56;5026098;28;20254;-75
2023/11/22 10:30:30;;;;;;;12.07;6.17;;;;;;;-0.77;89.19;102360.81;5027824;28;20207;-75
2023/11/22 10:32:56;;;;;;;11.03;6.10;;;;;;;-0.77;89.08;102356.38;5031692;28;20207;-75
2023/11/22 10:35:23;;;;;;;15.23;7.40;;;;;;;-0.74;87.68;102351.81;5028107;28;20211;-74
2023/11/22 10:37:49;;;;;;;12.03;7.17;;;;;;;-0.73;88.15;102349.78;5033353;28;20223;-74
2023/11/22 10:40:17;;;;;;;11.83;6.87;;;;;;;-0.69;89.62;102354.56;5024487;28;20699;-75
2023/11/22 10:42:44;;;;;;;11.33;6.23;;;;;;;-0.67;89.83;102361.16;5028928;28;20200;-74
2023/11/22 10:45:10;;;;;;;12.73;7.33;;;;;;;-0.64;89.94;102359.94;5026565;28;20227;-75
2023/11/22 10:47:38;;;;;;;8.73;5.83;;;;;;;-0.62;90.06;102363.91;5020742;28;20188;-75
2023/11/22 10:50:07;;;;;;;11.20;6.10;;;;;;;-0.61;88.32;102370.69;5028602;28;20195;-73
2023/11/22 10:52:36;;;;;;;10.20;6.10;;;;;;;-0.58;90.16;102375.44;5032488;28;20199;-75
2023/11/22 10:55:05;;;;;;;9.97;5.83;;;;;;;-0.56;88.79;102387.19;5028074;28;20705;-75
2023/11/22 10:57:37;;;;;;;11.17;6.43;;;;;;;-0.55;89.87;102388.00;5032091;28;20223;-75
2023/11/22 11:00:07;;;;;;;10.23;6.00;;;;;;;-0.55;86.31;102386.19;5032562;28;20218;-75
2023/11/22 11:02:41;;;;;;;11.03;6.23;;;;;;;-0.53;88.87;102393.78;5029324;28;20192;-75
2023/11/22 11:05:17;;;;;;;12.90;6.90;;;;;;;-0.50;85.64;102403.75;5053209;28;20637;-75
2023/11/22 11:07:49;;;;;;;10.23;6.30;;;;;;;-0.47;87.72;102414.50;5033592;28;20192;-75
2023/11/22 11:10:16;;;;;;;11.73;6.63;;;;;;;-0.45;87.00;102406.50;5026362;28;20204;-75
2023/11/22 11:12:45;;;;;;;11.27;6.60;;;;;;;-0.43;88.01;102415.69;5032312;28;20196;-74
2023/11/22 11:15:12;;;;;;;10.40;6.50;;;;;;;-0.41;88.20;102416.25;5032015;28;20696;-75
2023/11/22 11:17:39;;;;;;;10.03;6.00;;;;;;;-0.40;87.59;102422.25;5033884;28;20212;-75
2023/11/22 11:20:06;;;;;;;9.73;5.80;;;;;;;-0.37;88.19;102422.63;5028545;28;20199;-75